默认 日期 大小 文件数 浏览量 最新下载 xml
drop 2025磁力链接相关资源由用户搜索指令自动获取,结果来源于网络,本站不存储任何资料,亦不承担任何责任,请于24小时内删除,搜索到215个磁力,用时6ms。
    {"INFO.nfo": 1198, "cover.jpg": 102414, "13. Gypsy Woman (WMBR Session 02.04.92).flac": 18179669, "18. Three Wishes (WMBR Session 02.04.92).flac": 20902756, "23. February (The WFMU Session 27.07.93).flac": 15486029, "04. Silly Girl (John Peel Session 20.08 ...
创建时间: 2025-01-17 15:21:16 大小:520.4 MB 文件数量:26 热度:9 最近下载:2025-09-20 08:09:02
    {"INFO.nfo": 1198, "cover.jpg": 51561, "01. Daymom.flac": 72133362, "04. Soapland.flac": 45313368, "05. Mayfield.flac": 33730674, "08. Snowbird.flac": 62847763, "02. Song for J.J..flac": 66195998, "06. Shannon Waves.flac": 42657679, "09. Another Summer. ...
创建时间: 2025-02-08 09:30:57 大小:463.45 MB 文件数量:11 热度:2 最近下载:2025-03-07 01:37:02
    {"folder.jpg": 439294, "01 - Daymom.flac": 72064142, "04 - Soapland.flac": 45270939, "05 - Mayfield.flac": 33699816, "08 - Snowbird.flac": 62787817, "02 - Song for J.J..flac": 66132702, "06 - Shannon Waves.flac": 42617898, "09 - Another Summer.flac": ...
创建时间: 2025-02-09 19:32:29 大小:463.38 MB 文件数量:10 热度:5 最近下载:2025-04-06 10:55:01
    ... 37891116}, "16 - Additional Enhancements": {"104 - DROP-SERVICING-TOOLS.pdf": 912300, "103 ... 16596887}, "2 - Unlocking Drop Servicing": {"7 - What is Drop Servicing.mp4": 31660382 ... Expectations.mp4": 130545912, "3 - Drop Servicing Course Roadmap Your Blueprint ...
创建时间: 2025-02-21 15:14:49 大小:2.99 GB 文件数量:122 热度:3 最近下载:2025-03-09 01:03:04
    ... .txt": 129, "Bill Burr Drop Dead Years 2025 720p DSNP WEB-DL ... .jpg": 410405, "Bill Burr Drop Dead Years 2025 720p DSNP WEB-DL ... .mkv": 1112761661, "Bill Burr Drop Dead Years 2025 720p DSNP WEB-DL ...
创建时间: 2025-03-15 09:36:47 大小:1.04 GB 文件数量:4 热度:1 最近下载:2025-03-16 22:18:01
    ... .txt": 129, "bill.burr.drop.dead.years.2025.1080p.web.h264-accomplishedyak ... .mkv": 1872519328, "bill.burr.drop.dead.years.2025.1080p.web.h264-accomplishedyak ...
创建时间: 2025-03-16 08:05:08 大小:1.75 GB 文件数量:7 热度:1 最近下载:2025-03-16 23:32:02
    {"mediainfo.txt": 4559, "_CheerfulTomato.txt": 109, "screenshot_5min.jpg": 142499, "screenshot_10min.jpg": 131834, "screenshot_15min.jpg": 97372, "bill.burr.drop.dead.years.2025.1080p.web.h264-accomplishedyak.mkv": 1872519328}
创建时间: 2025-03-17 12:19:07 大小:1.74 GB 文件数量:6 热度:1 最近下载:2025-03-17 22:28:02
    {"www.YTS.MX.jpg": 53226, "YTSProxies.com.txt": 604, "Bill.Burr.Drop.Dead.Years.2025.2160p.4K.WEB.x265.10bit.AAC5.1-[YTS.MX].mkv": 3305142084}
创建时间: 2025-03-17 14:20:08 大小:3.08 GB 文件数量:3 热度:3 最近下载:2025-05-26 04:13:01
    ... .png": 2036326}, "bill.burr.drop.dead.years.2025.1080p.web.h264-accomplishedyak ... .mkv": 1872519328, "bill.burr.drop.dead.years.2025.1080p.web.h264-accomplishedyak ...
创建时间: 2025-03-27 14:55:22 大小:1.75 GB 文件数量:6 热度:1 最近下载:2025-03-28 08:28:02
    ... .txt": 129, "Bill Burr Drop Dead Years 2025 1080p WEBRip x265-DH ... .jpg": 405247, "Bill Burr Drop Dead Years 2025 1080p WEBRip x265-DH ... .mkv": 1724530538, "Bill Burr Drop Dead Years 2025 1080p WEBRip x265-DH ...
创建时间: 2025-03-30 12:31:35 大小:1.61 GB 文件数量:4 热度:1 最近下载:2025-03-30 23:32:01
    ... 11h39m19s188.png": 855045, "vlcsnap-2025-04-09-11h39m22s304.png": 813833 ... , "vlcsnap-2025-04-09-11h39m25s376.png": ... 805103, "vlcsnap-2025-04-09-11h39m28s605.png": ... .06.Theodora.Day.Drip.Drop.mp4": 1044759039, "请务 ...
创建时间: 2025-04-09 15:33:21 大小:1021.92 MB 文件数量:14 热度:4 最近下载:2025-10-09 06:47:02
    {"Importante Leeme!.vbs": 213, "Descargar Películas, Series y Animes...url": 50, "Drop.Amenaza.anonima.2025.WEB-DL.1080p-Dual-Lat.mkv": 5565875203}
创建时间: 2025-05-02 10:21:31 大小:5.18 GB 文件数量:3 热度:1 最近下载:2025-05-02 23:56:01
    {"Importante Leeme!.vbs": 213, "Descargar Películas, Series y Animes...url": 50, "Drop.Amenaza.anonima.2025.720p-Dual-Lat.mkv": 1280974661}
创建时间: 2025-05-04 19:25:54 大小:1.19 GB 文件数量:3 热度:1 最近下载:2025-05-05 20:32:02
    {"Importante Leeme!.vbs": 213, "Descargar Películas, Series y Animes...url": 50, "Drop.Amenaza.anonima.2025.1080p-Dual-Lat.mkv": 2387361329}
创建时间: 2025-05-05 17:59:25 大小:2.22 GB 文件数量:3 热度:1 最近下载:2025-05-06 19:30:02
    {"Drop.Amenaza.Anonima.2025.1080P-Dual-Lat.mkv": 1643651811, "Descargar Películas, Series y Animes Gratis....url": 50, "Drop.Amenaza.Anonima.2025.1080P-Dual-Lat_Subtitles01.SPA.srt": 6594}
创建时间: 2025-05-06 13:19:55 大小:1.53 GB 文件数量:3 热度:1 最近下载:2025-05-06 20:03:04
    {"BDMV": {"BACKUP": {"CLIPINF": {"00000.clpi": 102312}, "PLAYLIST": {"00000.mpls": 694}, "index.bdmv": 156, "MovieObject.bdmv": 290}, "STREAM": {"00000.m2ts": 59074381824}, "CLIPINF": {"00000.clpi": 102312}, "PLAYLIST": {"00000.mpls": 694}, "index.bdmv": ...
创建时间: 2025-12-16 17:34:19 大小:55.02 GB 文件数量:9 热度:0
    {"Drop.2025.2160p.BluRay.DoVi.x265.10bit. ... .TrueHD7.1-CTRLHD.mkv": 29081342522, "Drop.2025.2160p.BluRay.DoVi.x265.10bit ...
创建时间: 2026-01-09 08:51:29 大小:27.09 GB 文件数量:5 热度:0
    ... 号:52zygx.txt": 0, "Drop.2025.BD1080P.H265.AC3.English.CHS ...
创建时间: 2026-01-17 12:00:50 大小:4.16 GB 文件数量:6 热度:0
    {"Sample.mkv": 12883868, "Drop.2025.720p.BluRay.x265.DD5.1-TuKCo.mkv": 1579528113, "Drop.2025.720p.BluRay.x265.DD5.1-TuKCo.nfo": 2176}
创建时间: 2026-01-25 13:38:47 大小:1.48 GB 文件数量:3 热度:0
    {"Drop.2025.UHD.BluRay.2160p.x265.10bit. ...
创建时间: 2026-04-07 13:26:45 大小:10.78 GB 文件数量:4 热度:0